Time;durP1;ratioP1;P1;durP2;ratioP2;P2;SDS_P1;SDS_P2;PMS_P1;PMS_P2;Temp;Humidity;BMP_temperature;BMP_pressure;BME280_temperature;BME280_humidity;BME280_pressure;Samples;Min_cycle;Max_cycle;Signal;HPM_P1;HPM_P2
2021/03/10 00:01:40;;;;;;;4.82;2.67;;;;;;;25.50;27.11;96699.72;4992753;28;20045;-34
2021/03/10 00:04:05;;;;;;;4.97;2.60;;;;;;;25.50;26.84;96699.72;4994258;28;20109;-31
2021/03/10 00:06:31;;;;;;;4.32;2.53;;;;;;;25.50;27.08;96694.47;4997085;28;20402;-34
2021/03/10 00:08:57;;;;;;;5.07;2.70;;;;;;;25.51;26.99;96700.59;4990494;28;20296;-32
2021/03/10 00:11:22;;;;;;;5.47;2.58;;;;;;;25.51;27.12;96692.72;4998904;28;20265;-32
2021/03/10 00:13:48;;;;;;;4.18;2.30;;;;;;;25.50;26.99;96685.75;5000771;28;20030;-35
2021/03/10 00:16:13;;;;;;;5.50;2.60;;;;;;;25.50;26.79;96686.59;4992687;28;20034;-31
2021/03/10 00:18:39;;;;;;;6.50;2.58;;;;;;;25.50;27.00;96691.84;4998965;28;20060;-31
2021/03/10 00:21:04;;;;;;;3.88;2.53;;;;;;;25.50;27.06;96698.88;4995347;28;20521;-32
2021/03/10 00:23:30;;;;;;;4.07;2.33;;;;;;;25.49;27.10;96690.16;4999983;28;20033;-30
2021/03/10 00:25:55;;;;;;;3.92;2.13;;;;;;;25.49;27.17;96690.16;5003491;28;20489;-35
2021/03/10 00:28:21;;;;;;;3.45;2.22;;;;;;;25.50;26.83;96699.72;4994216;28;20037;-32
2021/03/10 00:30:46;;;;;;;4.40;2.65;;;;;;;25.49;27.13;96700.66;4991968;28;20044;-32
2021/03/10 00:33:11;;;;;;;3.78;2.25;;;;;;;25.49;27.14;96716.41;5001746;28;20437;-33
2021/03/10 00:35:37;;;;;;;3.63;2.28;;;;;;;25.49;27.15;96716.41;4978135;28;20476;-32
2021/03/10 00:38:02;;;;;;;3.90;2.17;;;;;;;25.50;26.91;96711.97;4997613;28;20060;-30
2021/03/10 00:40:28;;;;;;;4.03;2.20;;;;;;;25.50;27.03;96707.59;4996630;28;20029;-32
2021/03/10 00:42:56;;;;;;;3.90;2.08;;;;;;;25.50;27.04;96712.84;4998616;28;20309;-34
2021/03/10 00:45:21;;;;;;;3.40;2.30;;;;;;;25.49;27.09;96716.41;4998274;28;20046;-32
2021/03/10 00:47:47;;;;;;;4.43;2.30;;;;;;;25.51;27.00;96716.31;4993562;28;20030;-31
2021/03/10 00:50:20;;;;;;;4.30;2.03;;;;;;;25.50;27.11;96718.09;4998275;28;20030;-34
2021/03/10 00:52:46;;;;;;;2.80;2.00;;;;;;;25.50;27.13;96725.97;5000754;28;20032;-32
2021/03/10 00:55:12;;;;;;;3.85;2.40;;;;;;;25.50;26.90;96712.84;4989004;28;20944;-30
2021/03/10 00:57:37;;;;;;;2.95;1.80;;;;;;;25.49;26.98;96721.66;4967772;28;20033;-32
2021/03/10 01:00:04;;;;;;;3.58;1.92;;;;;;;25.49;26.88;96711.16;4998640;28;20033;-31
2021/03/10 01:02:29;;;;;;;6.85;2.20;;;;;;;25.49;26.86;96711.16;4983325;28;20034;-32
2021/03/10 01:04:55;;;;;;;3.88;2.35;;;;;;;25.48;26.88;96714.72;4997673;28;20406;-35
2021/03/10 01:07:20;;;;;;;2.45;1.90;;;;;;;25.49;26.85;96712.91;5000913;28;20434;-32
2021/03/10 01:09:46;;;;;;;3.58;2.10;;;;;;;25.48;26.95;96709.47;4999581;28;20030;-33
2021/03/10 01:12:13;;;;;;;2.08;1.70;;;;;;;25.49;26.98;96705.03;4998860;28;20096;-33
2021/03/10 01:14:39;;;;;;;2.72;1.85;;;;;;;25.48;26.69;96700.72;4992140;28;20032;-33
2021/03/10 01:17:04;;;;;;;3.42;2.30;;;;;;;25.49;27.02;96707.66;4992523;28;20028;-34
2021/03/10 01:19:30;;;;;;;2.90;2.00;;;;;;;25.48;26.83;96700.72;5001088;28;20537;-34
2021/03/10 01:21:55;;;;;;;3.40;2.08;;;;;;;25.48;26.78;96703.34;4996735;28;20041;-35
2021/03/10 01:24:20;;;;;;;4.30;2.28;;;;;;;25.48;26.87;96709.47;4996078;28;20465;-33
2021/03/10 01:26:46;;;;;;;3.75;1.80;;;;;;;25.48;26.80;96704.22;4994183;28;20033;-31
2021/03/10 01:29:11;;;;;;;3.17;2.10;;;;;;;25.48;26.79;96703.34;4997992;28;20029;-33
2021/03/10 01:31:37;;;;;;;3.13;1.92;;;;;;;25.47;26.95;96702.50;5002912;28;20034;-33
2021/03/10 01:34:02;;;;;;;3.80;2.40;;;;;;;25.47;26.87;96697.25;5004234;28;20025;-31
2021/03/10 01:36:27;;;;;;;3.15;2.17;;;;;;;25.46;26.75;96695.56;4996435;28;20030;-34
2021/03/10 01:38:53;;;;;;;2.90;2.10;;;;;;;25.46;26.86;96695.56;4995676;28;20029;-31
2021/03/10 01:41:18;;;;;;;2.83;1.98;;;;;;;25.47;26.66;96684.13;4995645;28;20070;-35
2021/03/10 01:43:43;;;;;;;2.47;1.73;;;;;;;25.47;26.74;96701.69;4982761;28;20434;-34
2021/03/10 01:46:09;;;;;;;3.70;1.80;;;;;;;25.47;26.93;96699.88;4994958;28;20038;-31
2021/03/10 01:48:35;;;;;;;2.35;1.63;;;;;;;25.46;26.83;96695.56;4976066;28;20520;-29
2021/03/10 01:51:06;;;;;;;2.58;2.05;;;;;;;25.45;26.85;96699.13;4981115;28;20034;-32
2021/03/10 01:53:32;;;;;;;2.63;1.95;;;;;;;25.45;26.79;96686.84;4994508;28;20022;-34
2021/03/10 01:55:58;;;;;;;2.00;1.70;;;;;;;25.45;26.82;96693.88;4976162;28;20519;-33
2021/03/10 01:58:24;;;;;;;3.67;2.20;;;;;;;25.44;26.72;96695.66;4999451;28;20036;-32
2021/03/10 02:00:49;;;;;;;4.38;1.92;;;;;;;25.45;26.84;96693.88;4991270;28;20041;-31
2021/03/10 02:03:14;;;;;;;2.72;1.75;;;;;;;25.45;26.60;96688.63;4998311;28;20601;-33
2021/03/10 02:05:40;;;;;;;3.40;1.60;;;;;;;25.45;26.63;96692.09;4995321;28;20293;-35
2021/03/10 02:08:16;;;;;;;3.28;1.88;;;;;;;25.44;26.87;96693.03;4979404;28;20567;-30
2021/03/10 02:10:41;;;;;;;3.10;1.90;;;;;;;25.44;26.81;96677.28;4977649;28;20518;-33
2021/03/10 02:13:28;;;;;;;2.60;1.73;;;;;;;25.44;26.86;96676.44;4997211;28;20037;-34
2021/03/10 02:16:05;;;;;;;4.78;1.67;;;;;;;25.43;26.68;96670.34;4993461;28;20041;-32
2021/03/10 02:18:36;;;;;;;2.25;1.65;;;;;;;25.43;26.82;96670.34;4974783;28;20038;-34
2021/03/10 02:21:02;;;;;;;1.83;1.70;;;;;;;25.44;26.76;96663.34;4997132;28;20033;-32
2021/03/10 02:23:46;;;;;;;3.72;1.80;;;;;;;25.43;26.71;96664.25;4984111;28;20068;-32
2021/03/10 02:26:57;;;;;;;2.25;1.80;;;;;;;25.43;26.68;96665.09;5003933;28;20391;-33
2021/03/10 02:29:22;;;;;;;4.15;2.03;;;;;;;25.43;26.57;96674.72;4963005;28;20026;-34
2021/03/10 02:31:48;;;;;;;3.10;1.70;;;;;;;25.42;26.89;96673.03;4965805;28;20041;-33
2021/03/10 02:34:14;;;;;;;2.83;1.88;;;;;;;25.42;26.79;96673.03;4971772;28;20537;-32
2021/03/10 02:36:40;;;;;;;2.53;1.75;;;;;;;25.41;26.91;96669.59;4979020;28;20044;-31
2021/03/10 02:39:05;;;;;;;1.92;1.70;;;;;;;25.40;26.68;96674.91;4977808;28;20018;-32
2021/03/10 02:41:31;;;;;;;2.97;1.95;;;;;;;25.41;26.66;96687.97;4964314;28;20034;-32
2021/03/10 02:43:56;;;;;;;2.95;1.70;;;;;;;25.41;26.75;96693.19;4984608;28;20033;-32
2021/03/10 02:46:22;;;;;;;3.80;1.83;;;;;;;25.40;26.81;96693.28;4978969;28;20088;-31
2021/03/10 02:48:47;;;;;;;1.38;1.27;;;;;;;25.39;26.84;96689.81;4970005;28;20026;-32
2021/03/10 02:51:15;;;;;;;3.17;1.60;;;;;;;25.40;26.62;96690.66;4965806;28;20053;-31
2021/03/10 02:53:40;;;;;;;1.92;1.52;;;;;;;25.41;26.82;96697.59;5002053;28;20022;-32
2021/03/10 02:56:10;;;;;;;2.72;1.88;;;;;;;25.39;26.70;96691.56;4992997;28;20573;-32
2021/03/10 02:58:37;;;;;;;2.17;1.77;;;;;;;25.39;26.87;96700.28;4982661;28;20413;-34
2021/03/10 03:01:03;;;;;;;2.28;1.70;;;;;;;25.40;26.77;96701.16;4999164;28;20069;-31
2021/03/10 03:03:28;;;;;;;3.20;1.40;;;;;;;25.40;26.67;96698.53;5003341;28;20075;-33
2021/03/10 03:05:54;;;;;;;2.70;1.75;;;;;;;25.40;26.71;96709.84;5001308;28;20263;-35
2021/03/10 03:08:19;;;;;;;2.65;1.85;;;;;;;25.40;26.77;96709.03;5001739;28;20021;-33
2021/03/10 03:10:44;;;;;;;2.38;1.77;;;;;;;25.40;26.73;96714.28;4968773;28;20652;-34
2021/03/10 03:13:12;;;;;;;3.45;1.60;;;;;;;25.39;26.73;96723.03;5005194;28;20029;-34
2021/03/10 03:15:38;;;;;;;1.70;1.58;;;;;;;25.40;26.67;96727.38;4976510;28;20053;-34
2021/03/10 03:18:04;;;;;;;4.00;1.90;;;;;;;25.39;26.60;96723.91;5006440;28;20026;-31
2021/03/10 03:20:30;;;;;;;3.60;1.50;;;;;;;25.38;26.80;96734.47;4978960;28;20033;-33
2021/03/10 03:22:55;;;;;;;1.90;1.48;;;;;;;25.39;26.60;96741.41;4976120;28;20600;-31
2021/03/10 03:25:23;;;;;;;1.63;1.40;;;;;;;25.38;26.62;96737.09;4999165;28;20061;-33
2021/03/10 03:27:50;;;;;;;3.20;1.70;;;;;;;25.38;26.67;96735.34;4996322;28;21027;-35
2021/03/10 03:30:16;;;;;;;1.40;1.30;;;;;;;25.40;26.94;96732.63;4981665;28;20065;-31
2021/03/10 03:32:42;;;;;;;2.58;1.52;;;;;;;25.38;26.73;96730.09;4995376;28;20026;-34
2021/03/10 03:35:08;;;;;;;2.22;1.67;;;;;;;25.39;26.77;96728.28;5000062;28;20603;-33
2021/03/10 03:37:33;;;;;;;2.05;1.42;;;;;;;25.38;26.84;96734.47;4980370;28;20029;-33
2021/03/10 03:39:58;;;;;;;1.77;1.45;;;;;;;25.38;26.82;96734.47;5003711;28;20029;-33
2021/03/10 03:42:24;;;;;;;3.55;1.63;;;;;;;25.39;26.84;96737.00;5004903;28;20026;-32
2021/03/10 03:44:49;;;;;;;1.85;1.35;;;;;;;25.39;26.58;96738.78;5002622;28;20022;-32
2021/03/10 03:47:17;;;;;;;2.53;1.63;;;;;;;25.38;26.95;96734.47;4959421;28;20815;-33
2021/03/10 03:49:48;;;;;;;2.63;1.58;;;;;;;25.38;26.89;96734.47;4999050;28;20713;-35
2021/03/10 03:52:14;;;;;;;;;;;;;;;25.38;26.91;96729.22;5002678;28;20044;-33
2021/03/10 03:54:39;;;;;;;1.55;1.42;;;;;;;25.38;26.95;96734.47;5001357;28;20440;-34
2021/03/10 03:57:05;;;;;;;1.98;1.58;;;;;;;25.33;26.86;96731.25;4987727;28;20041;-31
2021/03/10 03:59:30;;;;;;;2.70;1.50;;;;;;;25.36;26.76;96744.22;4977544;28;20120;-33
2021/03/10 04:01:56;;;;;;;3.10;1.40;;;;;;;25.35;26.84;96745.97;4992698;28;20235;-35
2021/03/10 04:04:21;;;;;;;2.35;1.48;;;;;;;25.36;26.87;96744.22;4999714;28;21971;-34
2021/03/10 04:06:47;;;;;;;3.50;1.63;;;;;;;25.34;26.79;96739.03;4997532;28;20034;-32
2021/03/10 04:09:12;;;;;;;2.72;1.30;;;;;;;25.34;26.81;96733.78;4997613;28;20502;-33
2021/03/10 04:11:38;;;;;;;2.25;1.35;;;;;;;25.34;26.97;96727.69;5003771;28;20095;-32
2021/03/10 04:14:03;;;;;;;2.92;1.60;;;;;;;25.34;26.93;96727.69;5003033;28;20037;-35
2021/03/10 04:16:29;;;;;;;1.95;1.30;;;;;;;25.34;26.82;96732.94;4997309;28;20025;-32
2021/03/10 04:18:54;;;;;;;2.17;1.50;;;;;;;25.34;26.80;96732.94;4990971;28;20037;-33
2021/03/10 04:21:19;;;;;;;1.45;1.15;;;;;;;25.34;26.87;96732.94;4994416;28;20025;-32
2021/03/10 04:23:45;;;;;;;4.63;1.90;;;;;;;25.35;26.85;96734.66;5000704;28;20021;-33
2021/03/10 04:26:10;;;;;;;1.77;1.33;;;;;;;25.35;26.71;96734.66;4997565;28;20036;-32
2021/03/10 04:28:36;;;;;;;2.35;1.15;;;;;;;25.34;26.89;96730.31;4977470;28;20033;-32
2021/03/10 04:31:01;;;;;;;2.10;1.40;;;;;;;25.34;26.69;96728.53;4998840;28;20407;-32
2021/03/10 04:33:27;;;;;;;1.70;1.30;;;;;;;25.35;26.82;96737.28;5001083;28;20036;-32
2021/03/10 04:35:52;;;;;;;3.00;1.73;;;;;;;25.33;26.69;96731.25;4998321;28;20030;-33
2021/03/10 04:38:17;;;;;;;1.30;1.20;;;;;;;25.34;26.82;96740.81;5006725;28;20038;-32
2021/03/10 04:40:43;;;;;;;3.67;1.48;;;;;;;25.34;26.78;96748.66;4997357;28;20099;-34
2021/03/10 04:43:08;;;;;;;1.77;1.30;;;;;;;25.33;26.74;96747.84;4980048;28;20026;-34
2021/03/10 04:45:33;;;;;;;1.48;1.35;;;;;;;25.31;26.78;96747.91;4991079;28;20037;-34
2021/03/10 04:47:59;;;;;;;2.38;1.23;;;;;;;25.34;26.77;96748.66;4997807;28;20382;-34
2021/03/10 04:50:24;;;;;;;1.55;1.33;;;;;;;25.33;26.94;96746.97;5001755;28;20040;-32
2021/03/10 04:52:50;;;;;;;2.78;1.13;;;;;;;25.31;26.80;96750.53;4985492;28;20030;-33
2021/03/10 04:55:15;;;;;;;2.00;1.40;;;;;;;25.31;26.81;96761.03;4997967;28;20029;-32
2021/03/10 04:57:40;;;;;;;1.20;1.10;;;;;;;25.31;26.88;96765.41;4976984;28;20571;-35
2021/03/10 05:00:09;;;;;;;1.42;1.23;;;;;;;25.31;26.77;96766.28;5002251;28;20029;-31
2021/03/10 05:02:35;;;;;;;1.75;1.20;;;;;;;25.30;26.75;96764.59;4999034;28;20517;-33
2021/03/10 05:05:01;;;;;;;2.38;1.15;;;;;;;25.30;26.72;96764.59;5001161;28;20030;-37
2021/03/10 05:07:27;;;;;;;1.85;1.45;;;;;;;25.31;26.90;96768.03;4977576;28;20054;-33
2021/03/10 05:09:52;;;;;;;1.88;1.17;;;;;;;25.30;27.01;96764.59;5000841;28;20056;-32
2021/03/10 05:12:17;;;;;;;1.73;1.30;;;;;;;25.30;26.85;96761.97;5000595;28;20029;-32
2021/03/10 05:14:43;;;;;;;2.17;1.10;;;;;;;25.31;26.81;96765.41;4996709;28;20065;-33
2021/03/10 05:17:08;;;;;;;1.40;1.27;;;;;;;25.30;26.99;96763.72;4998901;28;20484;-32
2021/03/10 05:19:34;;;;;;;2.33;1.33;;;;;;;25.29;26.93;96767.28;4998145;28;20025;-30
2021/03/10 05:21:59;;;;;;;2.88;1.02;;;;;;;25.29;26.77;96765.50;4996673;28;20034;-32
2021/03/10 05:24:24;;;;;;;1.80;1.35;;;;;;;25.28;26.93;96766.44;5000114;28;20084;-31
2021/03/10 05:26:50;;;;;;;1.73;1.27;;;;;;;25.28;26.79;96770.84;4993057;28;20029;-32
2021/03/10 05:29:15;;;;;;;1.70;1.30;;;;;;;25.28;26.92;96771.66;4993925;28;20025;-32
2021/03/10 05:31:41;;;;;;;2.97;1.25;;;;;;;25.28;26.80;96776.09;4996653;28;20531;-33
2021/03/10 05:34:06;;;;;;;3.83;1.35;;;;;;;25.28;26.93;96776.91;4998284;28;20042;-31
2021/03/10 05:36:31;;;;;;;1.50;1.20;;;;;;;25.27;26.92;96780.47;4989919;28;20041;-32
2021/03/10 05:38:57;;;;;;;3.53;1.20;;;;;;;25.26;26.80;96784.03;4994357;28;22131;-33
2021/03/10 05:41:22;;;;;;;1.25;1.15;;;;;;;25.27;26.95;96788.34;4976443;28;20033;-34
2021/03/10 05:43:48;;;;;;;1.52;1.02;;;;;;;25.27;26.97;96783.09;4980595;28;20095;-32
2021/03/10 05:46:13;;;;;;;1.52;1.00;;;;;;;25.28;26.74;96786.59;4993390;28;20524;-31
2021/03/10 05:48:39;;;;;;;1.70;1.20;;;;;;;25.27;26.95;96783.09;4999117;28;20112;-32
2021/03/10 05:51:05;;;;;;;3.08;0.98;;;;;;;25.26;26.85;96783.16;4995857;28;20018;-31
2021/03/10 05:53:32;;;;;;;1.65;1.10;;;;;;;25.27;26.78;96785.72;4982742;28;20021;-32
2021/03/10 05:56:00;;;;;;;1.55;1.20;;;;;;;25.27;26.95;96788.34;4961255;28;20105;-33
2021/03/10 05:58:26;;;;;;;1.30;1.20;;;;;;;25.27;26.80;96796.22;4972071;28;20030;-32
2021/03/10 06:00:51;;;;;;;1.08;0.98;;;;;;;25.27;26.95;96790.97;5004492;28;20038;-31
2021/03/10 06:03:17;;;;;;;1.40;1.05;;;;;;;25.26;26.86;96794.53;5006176;28;20444;-32
2021/03/10 06:05:43;;;;;;;1.20;1.10;;;;;;;25.27;26.79;96800.59;5002477;28;20038;-35
2021/03/10 06:08:09;;;;;;;2.60;1.20;;;;;;;25.26;26.79;96804.16;5002632;28;20144;-34
2021/03/10 06:10:47;;;;;;;1.88;1.23;;;;;;;25.24;26.98;96804.22;4997423;28;20072;-31
2021/03/10 06:13:29;;;;;;;1.83;0.95;;;;;;;25.25;26.78;96805.91;4999566;28;20025;-33
2021/03/10 06:15:56;;;;;;;1.38;1.08;;;;;;;25.25;26.90;96802.47;4999425;28;20037;-31
2021/03/10 06:18:22;;;;;;;2.40;1.00;;;;;;;25.26;26.85;96806.78;5002146;28;20124;-33
2021/03/10 06:20:47;;;;;;;1.60;1.02;;;;;;;25.25;27.03;96807.72;5002163;28;20033;-33
2021/03/10 06:23:16;;;;;;;2.05;1.10;;;;;;;25.26;26.87;96814.66;5006908;28;20049;-33
2021/03/10 06:25:41;;;;;;;1.20;1.10;;;;;;;25.26;27.01;96815.50;4999241;28;20065;-33
2021/03/10 06:28:06;;;;;;;1.27;1.00;;;;;;;25.25;27.02;96819.03;4978852;28;20042;-34
2021/03/10 06:30:40;;;;;;;1.75;1.23;;;;;;;25.24;27.16;96822.59;4997187;28;20034;-32
2021/03/10 06:33:06;;;;;;;1.38;1.08;;;;;;;25.23;26.88;96818.28;5003138;28;20037;-32
2021/03/10 06:35:32;;;;;;;1.50;1.10;;;;;;;25.22;27.10;96816.59;4979527;28;20033;-35
2021/03/10 06:38:07;;;;;;;1.10;1.00;;;;;;;25.22;27.07;96821.81;4980873;28;20060;-33
2021/03/10 06:40:32;;;;;;;1.02;0.90;;;;;;;25.23;27.02;96826.13;4992433;28;20648;-32
2021/03/10 06:42:58;;;;;;;1.35;1.08;;;;;;;25.23;27.00;96820.91;5000798;28;20037;-32
2021/03/10 06:45:32;;;;;;;1.10;1.00;;;;;;;25.23;27.09;96820.91;4994217;28;20034;-32
2021/03/10 06:47:58;;;;;;;0.98;0.80;;;;;;;25.22;26.97;96828.84;5000283;28;20026;-31
2021/03/10 06:50:34;;;;;;;1.33;0.93;;;;;;;25.22;26.96;96824.44;5003060;28;20064;-35
2021/03/10 06:52:59;;;;;;;3.15;1.00;;;;;;;25.21;26.98;96828.00;4991631;28;20032;-33
2021/03/10 06:55:25;;;;;;;1.88;1.00;;;;;;;25.21;27.11;96830.63;4997431;28;20037;-31
2021/03/10 06:57:52;;;;;;;1.73;1.05;;;;;;;25.20;27.10;96826.28;4962252;28;20522;-29
2021/03/10 07:00:22;;;;;;;1.10;1.00;;;;;;;25.20;27.13;96828.91;4970919;28;20437;-33
2021/03/10 07:02:47;;;;;;;1.27;1.17;;;;;;;25.20;27.16;96826.28;4981352;28;20041;-34
2021/03/10 07:05:13;;;;;;;1.17;0.85;;;;;;;25.19;27.04;96829.84;4976397;28;20026;-30
2021/03/10 07:07:38;;;;;;;1.40;1.05;;;;;;;25.19;26.96;96835.09;4966144;28;20030;-33
2021/03/10 07:10:04;;;;;;;2.55;0.98;;;;;;;25.20;27.08;96836.78;4987957;28;20117;-33
2021/03/10 07:12:30;;;;;;;1.52;0.90;;;;;;;25.20;27.13;96842.03;4994898;28;20048;-30
2021/03/10 07:14:56;;;;;;;1.20;1.10;;;;;;;25.20;27.18;96849.88;5002410;28;20486;-31
2021/03/10 07:17:23;;;;;;;1.30;0.93;;;;;;;25.21;26.90;96848.13;4982966;28;20033;-33
2021/03/10 07:19:49;;;;;;;1.75;0.90;;;;;;;25.19;27.22;96840.34;4985139;28;20026;-34
2021/03/10 07:22:30;;;;;;;1.20;1.10;;;;;;;25.19;27.07;96840.34;4977689;28;20030;-31
2021/03/10 07:25:00;;;;;;;7.88;4.22;;;;;;;25.21;27.32;96850.75;4979760;28;20038;-33
2021/03/10 07:27:25;;;;;;;5.25;2.20;;;;;;;25.19;27.36;96845.56;4983336;28;20042;-32
2021/03/10 07:29:58;;;;;;;3.45;1.90;;;;;;;25.18;27.11;96849.97;4969220;28;20034;-33
2021/03/10 07:32:24;;;;;;;6.18;1.85;;;;;;;25.17;27.21;96847.44;4986804;28;20041;-33
2021/03/10 07:34:59;;;;;;;8.93;2.75;;;;;;;25.17;27.10;96863.19;4991065;28;20547;-34
2021/03/10 07:37:24;;;;;;;7.38;2.50;;;;;;;25.16;27.26;96856.22;4994097;28;20029;-29
2021/03/10 07:39:50;;;;;;;4.88;2.97;;;;;;;25.16;27.16;96864.06;4977968;28;20533;-33
2021/03/10 07:42:17;;;;;;;9.18;2.08;;;;;;;25.16;27.17;96859.69;4978185;28;20964;-33
2021/03/10 07:44:42;;;;;;;9.48;1.77;;;;;;;25.16;27.46;96869.31;4979460;28;20018;-31
2021/03/10 07:47:12;;;;;;;3.75;1.45;;;;;;;25.18;27.42;96870.09;4992667;28;20554;-33
2021/03/10 07:49:38;;;;;;;7.80;2.08;;;;;;;25.18;27.47;96870.09;4978332;28;20037;-30
2021/03/10 07:52:11;;;;;;;3.33;1.58;;;;;;;25.19;27.65;96874.41;4993609;28;20036;-35
2021/03/10 07:54:38;;;;;;;4.78;1.88;;;;;;;25.20;27.38;96888.41;4975882;28;20026;-33
2021/03/10 07:57:14;;;;;;;4.03;1.60;;;;;;;25.20;27.53;96883.97;4977860;28;20022;-34
2021/03/10 08:00:00;;;;;;;5.38;2.15;;;;;;;25.18;27.41;96888.47;4976656;28;20033;-31
2021/03/10 08:02:26;;;;;;;3.75;1.60;;;;;;;25.20;27.62;96889.22;4996743;28;20080;-34
2021/03/10 08:05:03;;;;;;;3.10;1.33;;;;;;;25.21;27.58;96890.94;4978892;28;20045;-34
2021/03/10 08:07:33;;;;;;;2.05;1.55;;;;;;;25.21;27.68;96898.81;4996204;28;20040;-33
2021/03/10 08:09:59;;;;;;;5.38;1.60;;;;;;;25.22;27.83;96897.88;4994082;28;20096;-31
2021/03/10 08:12:42;;;;;;;4.50;1.65;;;;;;;25.23;27.78;96898.72;4977046;28;20517;-30
2021/03/10 08:15:18;;;;;;;4.30;2.20;;;;;;;25.23;27.85;96901.34;4995434;28;20133;-31
2021/03/10 08:17:44;;;;;;;8.88;2.50;;;;;;;25.23;27.84;96896.94;4978350;28;20070;-30
2021/03/10 08:20:09;;;;;;;4.35;2.17;;;;;;;25.24;27.73;96900.44;4978250;28;20462;-33
2021/03/10 08:22:35;;;;;;;3.30;1.83;;;;;;;25.24;27.92;96895.19;4968165;28;20037;-32
2021/03/10 08:25:01;;;;;;;3.30;1.80;;;;;;;25.24;27.67;96900.44;5006221;28;20038;-33
2021/03/10 08:27:30;;;;;;;4.20;2.90;;;;;;;25.23;27.63;96903.97;4986253;28;20509;-32
2021/03/10 08:29:56;;;;;;;6.90;2.63;;;;;;;25.22;27.87;96905.75;4982258;28;20041;-32
2021/03/10 08:32:27;;;;;;;4.68;2.13;;;;;;;25.23;27.86;96894.34;5001995;28;20025;-33
2021/03/10 08:34:59;;;;;;;5.63;2.07;;;;;;;25.23;27.80;96904.81;5003169;28;20030;-32
2021/03/10 08:37:24;;;;;;;11.60;3.20;;;;;;;25.22;27.99;96897.88;4999286;28;20021;-32
2021/03/10 08:39:50;;;;;;;4.38;1.70;;;;;;;25.23;27.99;96904.81;4987414;28;20491;-30
2021/03/10 08:42:18;;;;;;;61.00;16.48;;;;;;;25.22;25.83;96903.13;5003452;28;20021;-33
2021/03/10 08:44:47;;;;;;;35.38;12.38;;;;;;;25.19;25.13;96900.66;4980845;28;20102;-34
2021/03/10 08:47:20;;;;;;;24.90;12.32;;;;;;;25.15;25.05;96896.47;5002590;28;20040;-32
2021/03/10 08:49:58;;;;;;;20.65;11.20;;;;;;;25.07;25.01;96898.63;5004354;28;20041;-33
2021/03/10 08:52:24;;;;;;;18.38;10.60;;;;;;;25.00;25.36;96893.69;5003123;28;20199;-32
2021/03/10 08:54:56;;;;;;;17.50;12.10;;;;;;;24.95;25.08;96894.81;5002683;28;20721;-32
2021/03/10 08:57:47;;;;;;;;;;;;;;;24.89;25.14;96895.97;5002551;28;20391;-36
2021/03/10 09:00:17;;;;;;;19.17;11.15;;;;;;;24.82;25.51;96898.00;4998550;28;19913;-32
2021/03/10 09:02:42;;;;;;;17.33;11.25;;;;;;;24.78;25.31;96899.06;5005141;28;20117;-35
2021/03/10 09:05:09;;;;;;;17.55;10.70;;;;;;;24.74;25.46;96894.88;4999834;28;20406;-33
2021/03/10 09:07:34;;;;;;;19.20;12.50;;;;;;;24.69;25.46;96892.50;5004192;28;20030;-31
2021/03/10 09:10:01;;;;;;;15.35;11.18;;;;;;;24.66;25.64;96897.88;4985058;28;20030;-30
2021/03/10 09:12:27;;;;;;;16.65;10.88;;;;;;;24.62;25.86;96891.94;4985363;28;20022;-31
2021/03/10 09:14:52;;;;;;;16.23;10.98;;;;;;;24.60;25.63;96900.78;4999343;28;20026;-33
2021/03/10 09:17:18;;;;;;;16.25;11.55;;;;;;;24.57;25.66;96901.78;4977123;28;20043;-32
2021/03/10 09:19:47;;;;;;;26.75;20.77;;;;;;;24.48;23.65;96897.78;4976880;28;20034;-32
2021/03/10 09:22:12;;;;;;;27.05;22.38;;;;;;;24.34;22.12;96900.22;4993201;28;20033;-33
2021/03/10 09:25:13;;;;;;;27.92;22.27;;;;;;;24.04;22.02;96892.75;4993895;28;20018;-31
2021/03/10 09:27:38;;;;;;;35.40;20.35;;;;;;;23.84;22.53;96897.94;4993420;28;20029;-33
2021/03/10 09:30:12;;;;;;;25.55;17.70;;;;;;;23.72;23.04;96899.34;4997649;28;20025;-33
2021/03/10 09:32:45;;;;;;;26.30;15.15;;;;;;;23.66;23.68;96899.63;4996672;28;20057;-33
2021/03/10 09:35:21;;;;;;;33.17;15.90;;;;;;;23.66;24.12;96889.16;4994145;28;20025;-33
2021/03/10 09:37:51;;;;;;;35.40;15.02;;;;;;;23.69;24.45;96889.03;4991262;28;20491;-35
2021/03/10 09:40:17;;;;;;;25.08;12.75;;;;;;;23.74;24.64;96897.53;4993592;28;20079;-30
2021/03/10 09:42:56;;;;;;;27.00;12.13;;;;;;;23.81;24.91;96902.47;4976608;28;20117;-32
2021/03/10 09:45:25;;;;;;;23.38;10.70;;;;;;;23.87;24.99;96897.00;4993452;28;20037;-33
2021/03/10 09:47:51;;;;;;;26.77;9.60;;;;;;;23.93;25.30;96888.88;4992710;28;20505;-33
2021/03/10 09:50:29;;;;;;;20.38;9.55;;;;;;;24.00;25.18;96886.81;4995142;28;20033;-30
2021/03/10 09:52:55;;;;;;;26.73;8.68;;;;;;;24.06;25.49;96890.94;4982788;28;20029;-35
2021/03/10 09:55:22;;;;;;;16.70;7.75;;;;;;;24.10;25.96;96884.69;4995360;28;20397;-35
2021/03/10 09:57:47;;;;;;;23.83;7.53;;;;;;;24.12;26.16;96875.00;4991992;28;20041;-34
2021/03/10 10:00:20;;;;;;;17.17;7.50;;;;;;;24.19;26.42;96871.19;4990917;28;20042;-36
2021/03/10 10:02:46;;;;;;;18.55;7.50;;;;;;;24.31;26.38;96877.63;4990500;28;20022;-33
2021/03/10 10:05:28;;;;;;;17.80;7.28;;;;;;;24.46;26.07;96872.59;4998930;28;20021;-33
2021/03/10 10:07:55;;;;;;;11.90;6.28;;;;;;;24.64;26.04;96865.66;4973220;28;20414;-36
2021/03/10 10:10:20;;;;;;;11.68;5.90;;;;;;;24.81;25.75;96867.47;4978631;28;20032;-36
2021/03/10 10:12:50;;;;;;;12.13;5.60;;;;;;;24.98;26.02;96864.06;4967901;28;20030;-33
2021/03/10 10:15:18;;;;;;;11.45;5.70;;;;;;;25.17;25.61;96876.28;4974651;28;20019;-35
2021/03/10 10:17:45;;;;;;;13.60;5.97;;;;;;;25.35;25.58;96882.38;4971312;28;21338;-38
2021/03/10 10:20:11;;;;;;;11.48;5.53;;;;;;;25.51;25.13;96882.44;4972432;28;20041;-33
2021/03/10 10:22:36;;;;;;;11.82;5.10;;;;;;;25.67;25.06;96884.34;4970630;28;20057;-33
2021/03/10 10:25:03;;;;;;;10.73;5.45;;;;;;;25.80;24.98;96877.53;4976778;28;20022;-34
2021/03/10 10:27:29;;;;;;;13.05;5.40;;;;;;;25.94;24.87;96878.59;4977977;28;20109;-34
2021/03/10 10:29:54;;;;;;;10.68;5.20;;;;;;;26.07;24.78;96878.78;4978356;28;20534;-34
2021/03/10 10:32:20;;;;;;;11.68;4.97;;;;;;;26.18;24.58;96873.81;4976416;28;20034;-36
2021/03/10 10:34:45;;;;;;;11.05;5.50;;;;;;;26.28;24.06;96882.06;4975078;28;20612;-33
2021/03/10 10:37:13;;;;;;;12.23;5.18;;;;;;;26.33;24.30;96869.56;4973964;28;20073;-32
2021/03/10 10:39:38;;;;;;;14.50;7.63;;;;;;;26.37;22.04;96874.63;4973776;28;20026;-33
2021/03/10 10:42:04;;;;;;;12.40;7.95;;;;;;;26.29;20.28;96870.66;4980981;28;20026;-31
2021/03/10 10:44:29;;;;;;;18.10;8.82;;;;;;;26.12;17.70;96871.50;4978790;28;20614;-32
2021/03/10 10:46:55;;;;;;;11.00;9.07;;;;;;;25.64;16.66;96871.38;4976317;28;20054;-32
2021/03/10 10:49:20;;;;;;;9.77;7.32;;;;;;;25.14;17.17;96872.00;4976218;28;20030;-34
2021/03/10 10:51:46;;;;;;;6.90;6.20;;;;;;;24.65;17.19;96867.34;4977626;28;20042;-32
2021/03/10 10:54:12;;;;;;;7.38;6.10;;;;;;;24.18;17.95;96863.41;4982527;28;20033;-32
2021/03/10 10:56:37;;;;;;;10.75;5.43;;;;;;;23.83;19.86;96874.50;4981246;28;20058;-33
2021/03/10 10:59:03;;;;;;;8.23;4.30;;;;;;;23.64;20.74;96880.50;4978107;28;20030;-33
2021/03/10 11:01:28;;;;;;;10.48;3.72;;;;;;;23.55;21.99;96875.66;4975503;28;20057;-33
2021/03/10 11:03:53;;;;;;;7.30;3.50;;;;;;;23.54;22.86;96874.81;4969671;28;20031;-33
2021/03/10 11:06:19;;;;;;;6.82;2.90;;;;;;;23.58;23.47;96875.53;4975539;28;20221;-34
2021/03/10 11:08:44;;;;;;;6.55;2.58;;;;;;;23.67;23.52;96875.16;4974515;28;20042;-35
2021/03/10 11:11:10;;;;;;;4.15;2.50;;;;;;;23.80;23.82;96869.38;4979230;28;20085;-34
2021/03/10 11:13:35;;;;;;;4.43;2.53;;;;;;;23.96;23.92;96874.78;4985709;28;20022;-35
2021/03/10 11:16:00;;;;;;;4.03;2.40;;;;;;;24.15;23.54;96864.38;4976585;28;20057;-34
2021/03/10 11:18:26;;;;;;;4.43;2.40;;;;;;;24.35;23.84;96863.47;4978745;28;20022;-34
2021/03/10 11:20:51;;;;;;;3.85;2.22;;;;;;;24.57;23.45;96865.09;4980140;28;20029;-34
2021/03/10 11:23:17;;;;;;;5.47;2.15;;;;;;;24.79;23.57;96858.84;4975934;28;20036;-35
2021/03/10 11:25:42;;;;;;;3.10;1.88;;;;;;;25.00;23.38;96858.75;4977962;28;20023;-36
2021/03/10 11:28:10;;;;;;;4.45;1.88;;;;;;;25.23;23.30;96854.13;4974727;28;20034;-39
2021/03/10 11:30:35;;;;;;;4.40;1.60;;;;;;;25.44;23.27;96849.59;4980421;28;20141;-36
2021/03/10 11:33:01;;;;;;;5.40;2.03;;;;;;;25.64;23.05;96845.13;4980577;28;20034;-38